Time;durP1;ratioP1;P1;durP2;ratioP2;P2;SDS_P1;SDS_P2;PMS_P1;PMS_P2;Temp;Humidity;BMP_temperature;BMP_pressure;BME280_temperature;BME280_humidity;BME280_pressure;Samples;Min_cycle;Max_cycle;Signal;HPM_P1;HPM_P2
2022/08/22 00:00:58;;;;;;;;;;;15.20;99.90;;;;;;5030079;28;20532;-69
2022/08/22 00:03:50;;;;;;;;;;;15.10;99.90;;;;;;5041855;28;20583;-69
2022/08/22 00:06:32;;;;;;;;;;;15.10;99.90;;;;;;5025663;28;19921;-70
2022/08/22 00:09:17;;;;;;;;;;;15.10;99.90;;;;;;5041136;28;19947;-69
2022/08/22 00:11:53;;;;;;;;;;;15.10;99.90;;;;;;5043404;28;19956;-70
2022/08/22 00:14:22;;;;;;;;;;;15.10;99.90;;;;;;5035951;28;19921;-70
2022/08/22 00:17:01;;;;;;;;;;;15.10;99.90;;;;;;5042056;28;20314;-70
2022/08/22 00:19:45;;;;;;;;;;;15.00;99.90;;;;;;5039912;28;19990;-70
2022/08/22 00:22:35;;;;;;;;;;;15.10;99.90;;;;;;5039828;28;19925;-70
2022/08/22 00:25:10;;;;;;;;;;;15.00;99.90;;;;;;5039258;28;20291;-69
2022/08/22 00:27:52;;;;;;;;;;;14.90;99.90;;;;;;5041366;28;19960;-69
2022/08/22 00:30:25;;;;;;;;;;;14.90;99.90;;;;;;5043339;28;19940;-69
2022/08/22 00:33:02;;;;;;;;;;;14.90;99.90;;;;;;5033130;28;19924;-69
2022/08/22 00:35:39;;;;;;;;;;;14.90;99.90;;;;;;5031666;28;19925;-70
2022/08/22 00:38:20;;;;;;;;;;;14.90;99.90;;;;;;5039675;28;19928;-69
2022/08/22 00:40:58;;;;;;;;;;;14.90;99.90;;;;;;5038387;28;19925;-70
2022/08/22 00:43:38;;;;;;;;;;;14.90;99.90;;;;;;5039696;28;19931;-70
2022/08/22 00:46:22;;;;;;;;;;;14.90;99.90;;;;;;5039828;28;19921;-70
2022/08/22 00:49:01;;;;;;;;;;;14.80;99.90;;;;;;5043274;28;20306;-70
2022/08/22 00:51:51;;;;;;;;;;;14.80;99.90;;;;;;5042060;28;20390;-70
2022/08/22 00:54:31;;;;;;;;;;;14.80;99.90;;;;;;5042911;28;19964;-70
2022/08/22 00:57:29;;;;;;;;;;;14.80;99.90;;;;;;5044521;28;19927;-69
2022/08/22 01:00:22;;;;;;;;;;;14.70;99.90;;;;;;5017213;28;20401;-69
2022/08/22 01:03:08;;;;;;;;;;;14.60;99.90;;;;;;5039555;28;19921;-70
2022/08/22 01:05:43;;;;;;;;;;;14.60;99.90;;;;;;5043549;28;19921;-70
2022/08/22 01:08:24;;;;;;;;;;;14.70;99.90;;;;;;5039300;28;19925;-70
2022/08/22 01:11:14;;;;;;;;;;;14.70;99.90;;;;;;5044926;28;19931;-70
2022/08/22 01:14:07;;;;;;;;;;;14.60;99.90;;;;;;5044814;28;19928;-70
2022/08/22 01:17:00;;;;;;;;;;;14.60;99.90;;;;;;5043099;28;19931;-70
2022/08/22 01:19:32;;;;;;;;;;;14.50;99.90;;;;;;5043305;28;19980;-71
2022/08/22 01:22:22;;;;;;;;;;;14.40;99.90;;;;;;5047635;28;19946;-70
2022/08/22 01:25:18;;;;;;;;;;;14.40;99.90;;;;;;5028195;28;19921;-70
2022/08/22 01:28:09;;;;;;;;;;;14.40;99.90;;;;;;5036804;28;19928;-69
2022/08/22 01:30:59;;;;;;;;;;;14.40;99.90;;;;;;5042493;28;19921;-70
2022/08/22 01:33:34;;;;;;;;;;;14.40;99.90;;;;;;5021002;28;19928;-70
2022/08/22 01:36:19;;;;;;;;;;;14.40;99.90;;;;;;5034278;28;19925;-70
2022/08/22 01:39:10;;;;;;;;;;;14.40;99.90;;;;;;5029988;28;20371;-70
2022/08/22 01:41:56;;;;;;;;;;;14.40;99.90;;;;;;5043255;28;19921;-69
2022/08/22 01:44:46;;;;;;;;;;;14.40;99.90;;;;;;5046860;28;19971;-70
2022/08/22 01:47:28;;;;;;;;;;;14.40;99.90;;;;;;5044843;28;19925;-70
2022/08/22 01:50:29;;;;;;;;;;;14.30;99.90;;;;;;5029795;28;20284;-70
2022/08/22 01:53:04;;;;;;;;;;;14.30;99.90;;;;;;4985855;28;19924;-70
2022/08/22 01:55:55;;;;;;;;;;;14.30;99.90;;;;;;5041571;28;19925;-70
2022/08/22 01:58:28;;;;;;;;;;;14.30;99.90;;;;;;5022100;28;20350;-70
2022/08/22 02:01:19;;;;;;;;;;;14.30;99.90;;;;;;5036842;28;19924;-70
2022/08/22 02:03:54;;;;;;;;;;;14.30;99.90;;;;;;5041854;28;19920;-70
2022/08/22 02:06:33;;;;;;;;;;;14.20;99.90;;;;;;5041546;28;19967;-71
2022/08/22 02:09:07;;;;;;;;;;;14.20;99.90;;;;;;5041717;28;19931;-70
2022/08/22 02:11:42;;;;;;;;;;;14.20;99.90;;;;;;5044320;28;19960;-70
2022/08/22 02:14:24;;;;;;;;;;;14.20;99.90;;;;;;5035151;28;20414;-70
2022/08/22 02:17:05;;;;;;;;;;;14.20;99.90;;;;;;5042970;28;19921;-70
2022/08/22 02:19:39;;;;;;;;;;;14.20;99.90;;;;;;5025452;28;20315;-70
2022/08/22 02:22:29;;;;;;;;;;;14.10;99.90;;;;;;5043193;28;19921;-70
2022/08/22 02:25:08;;;;;;;;;;;14.10;99.90;;;;;;5050267;28;20283;-70
2022/08/22 02:27:50;;;;;;;;;;;14.10;99.90;;;;;;5032968;28;19946;-69
2022/08/22 02:30:49;;;;;;;;;;;14.10;99.90;;;;;;5035979;28;20449;-70
2022/08/22 02:33:25;;;;;;;;;;;14.20;99.90;;;;;;5021678;28;20018;-70
2022/08/22 02:36:08;;;;;;;;;;;14.10;99.90;;;;;;5042101;28;20036;-70
2022/08/22 02:38:46;;;;;;;;;;;14.10;99.90;;;;;;5044609;28;20332;-71
2022/08/22 02:41:44;;;;;;;;;;;14.10;99.90;;;;;;5045828;28;20414;-70
2022/08/22 02:44:19;;;;;;;;;;;14.10;99.90;;;;;;5041844;28;19921;-69
2022/08/22 02:46:59;;;;;;;;;;;14.10;99.90;;;;;;5041276;28;19963;-70
2022/08/22 02:49:37;;;;;;;;;;;14.00;99.90;;;;;;5043627;28;19943;-71
2022/08/22 02:52:13;;;;;;;;;;;14.00;99.90;;;;;;5044356;28;19955;-70
2022/08/22 02:54:52;;;;;;;;;;;13.90;99.90;;;;;;5024300;28;19944;-69
2022/08/22 02:57:34;;;;;;;;;;;13.80;99.90;;;;;;5043820;28;19967;-70
2022/08/22 03:00:21;;;;;;;;;;;13.80;99.90;;;;;;5044901;28;20272;-71
2022/08/22 03:02:59;;;;;;;;;;;13.70;99.90;;;;;;5040427;28;19925;-70
2022/08/22 03:05:36;;;;;;;;;;;13.70;99.90;;;;;;5042780;28;19964;-70
2022/08/22 03:08:08;;;;;;;;;;;13.70;99.90;;;;;;5043717;28;20311;-70
2022/08/22 03:10:42;;;;;;;;;;;13.70;99.90;;;;;;5035944;28;20366;-69
2022/08/22 03:13:29;;;;;;;;;;;13.60;99.90;;;;;;5017956;28;19931;-70
2022/08/22 03:16:14;;;;;;;;;;;13.60;99.90;;;;;;5043905;28;19924;-70
2022/08/22 03:19:01;;;;;;;;;;;13.60;99.90;;;;;;5041591;28;19921;-70
2022/08/22 03:21:33;;;;;;;;;;;13.60;99.90;;;;;;5044491;28;19959;-70
2022/08/22 03:24:10;;;;;;;;;;;13.50;99.90;;;;;;5043945;28;19920;-70
2022/08/22 03:26:44;;;;;;;;;;;13.40;99.90;;;;;;5042102;28;20127;-71
2022/08/22 03:29:24;;;;;;;;;;;13.30;99.90;;;;;;5031892;28;19924;-71
2022/08/22 03:32:08;;;;;;;;;;;13.30;99.90;;;;;;5023884;28;20335;-71
2022/08/22 03:35:00;;;;;;;;;;;13.30;99.90;;;;;;5024978;28;19925;-71
2022/08/22 03:37:39;;;;;;;;;;;13.30;99.90;;;;;;5046588;28;19920;-71
2022/08/22 03:40:20;;;;;;;;;;;13.30;99.90;;;;;;5048952;28;20488;-71
2022/08/22 03:43:10;;;;;;;;;;;13.30;99.90;;;;;;5033075;28;19921;-71
2022/08/22 03:46:00;;;;;;;;;;;13.30;99.90;;;;;;5048343;28;20492;-71
2022/08/22 03:48:33;;;;;;;;;;;13.30;99.90;;;;;;5018285;28;20371;-71
2022/08/22 03:51:23;;;;;;;;;;;13.20;99.90;;;;;;5038320;28;20379;-71
2022/08/22 03:54:14;;;;;;;;;;;13.20;99.90;;;;;;5040980;28;19925;-71
2022/08/22 03:57:07;;;;;;;;;;;13.20;99.90;;;;;;5020337;28;19931;-71
2022/08/22 03:59:39;;;;;;;;;;;13.10;99.90;;;;;;5033510;28;19925;-71
2022/08/22 04:02:13;;;;;;;;;;;13.10;99.90;;;;;;5034976;28;19921;-71
2022/08/22 04:04:55;;;;;;;;;;;13.10;99.90;;;;;;5033081;28;20294;-71
2022/08/22 04:07:45;;;;;;;;;;;13.00;99.90;;;;;;5048057;28;20011;-70
2022/08/22 04:10:36;;;;;;;;;;;13.10;99.90;;;;;;5044632;28;20299;-71
2022/08/22 04:13:16;;;;;;;;;;;13.10;99.90;;;;;;5042561;28;19982;-70
2022/08/22 04:16:04;;;;;;;;;;;13.20;99.90;;;;;;5037187;28;19925;-71
2022/08/22 04:18:55;;;;;;;;;;;13.20;99.90;;;;;;5017511;28;19920;-71
2022/08/22 04:21:46;;;;;;;;;;;13.30;99.90;;;;;;5033666;28;19928;-71
2022/08/22 04:24:27;;;;;;;;;;;13.30;99.90;;;;;;5049985;28;19927;-71
2022/08/22 04:27:17;;;;;;;;;;;13.30;99.90;;;;;;5035134;28;19943;-72
2022/08/22 04:29:54;;;;;;;;;;;13.20;99.90;;;;;;5044252;28;19925;-70
2022/08/22 04:32:39;;;;;;;;;;;13.20;99.90;;;;;;5007588;28;19925;-71
2022/08/22 04:35:16;;;;;;;;;;;13.20;99.90;;;;;;5042423;28;19931;-71
2022/08/22 04:37:55;;;;;;;;;;;13.20;99.90;;;;;;5043382;28;20391;-71
2022/08/22 04:41:00;;;;;;;;;;;13.20;99.90;;;;;;5034243;28;19938;-70
2022/08/22 04:43:47;;;;;;;;;;;13.20;99.90;;;;;;4954019;28;19966;-71
2022/08/22 04:46:26;;;;;;;;;;;13.20;99.90;;;;;;4970048;28;19932;-71
2022/08/22 04:48:56;;;;;;;;;;;13.20;99.90;;;;;;5014626;28;20075;-71
2022/08/22 04:51:49;;;;;;;;;;;13.20;99.90;;;;;;5042808;28;19929;-71
2022/08/22 04:54:23;;;;;;;;;;;13.20;99.90;;;;;;5038664;28;19927;-71
2022/08/22 04:57:06;;;;;;;;;;;13.20;99.90;;;;;;5045621;28;19932;-71
2022/08/22 04:59:38;;;;;;;;;;;13.20;99.90;;;;;;5047795;28;19925;-72
2022/08/22 05:02:12;;;;;;;;;;;13.30;99.90;;;;;;5050051;28;19924;-72
2022/08/22 05:04:44;;;;;;;;;;;13.20;99.90;;;;;;5049321;28;19920;-72
2022/08/22 05:07:19;;;;;;;;;;;13.20;99.90;;;;;;5031310;28;20003;-71
2022/08/22 05:10:04;;;;;;;;;;;13.20;99.90;;;;;;5019491;28;19921;-71
2022/08/22 05:12:41;;;;;;;;;;;13.20;99.90;;;;;;5031246;28;19927;-71
2022/08/22 05:15:12;;;;;;;;;;;13.20;99.90;;;;;;5041404;28;19927;-71
2022/08/22 05:17:46;;;;;;;;;;;13.20;99.90;;;;;;5012618;28;19932;-70
2022/08/22 05:20:20;;;;;;;;;;;13.20;99.90;;;;;;5020550;28;20377;-72
2022/08/22 05:22:55;;;;;;;;;;;13.20;99.90;;;;;;5031340;28;19959;-71
2022/08/22 05:25:29;;;;;;;;;;;13.20;99.90;;;;;;5032484;28;20426;-72
2022/08/22 05:28:12;;;;;;;;;;;13.30;99.90;;;;;;5036093;28;19928;-71
2022/08/22 05:30:39;;;;;;;;;;;13.30;99.90;;;;;;5028479;28;19931;-71
2022/08/22 05:33:11;;;;;;;;;;;13.40;99.90;;;;;;5040570;28;19920;-72
2022/08/22 05:35:49;;;;;;;;;;;13.40;99.90;;;;;;5042641;28;19979;-71
2022/08/22 05:38:32;;;;;;;;;;;13.50;99.90;;;;;;5037191;28;19956;-71
2022/08/22 05:41:10;;;;;;;;;;;13.60;99.90;;;;;;5033092;28;20291;-71
2022/08/22 05:43:42;;;;;;;;;;;13.70;99.90;;;;;;5029410;28;20363;-71
2022/08/22 05:46:37;;;;;;;;;;;13.80;99.90;;;;;;5017831;28;19924;-71
2022/08/22 05:49:20;;;;;;;;;;;13.80;99.90;;;;;;5015907;28;19921;-71
2022/08/22 05:51:52;;;;;;;;;;;13.80;99.90;;;;;;5045345;28;19921;-71
2022/08/22 05:54:26;;;;;;;;;;;13.80;99.90;;;;;;5045298;28;19924;-71
2022/08/22 05:57:07;;;;;;;;;;;13.80;99.90;;;;;;5045147;28;19936;-70
2022/08/22 05:59:40;;;;;;;;;;;13.90;99.90;;;;;;5037629;28;20294;-71
2022/08/22 06:02:25;;;;;;;;;;;13.90;99.90;;;;;;5036313;28;20310;-71
2022/08/22 06:04:59;;;;;;;;;;;13.90;99.90;;;;;;5048312;28;19956;-71
2022/08/22 06:07:40;;;;;;;;;;;14.00;99.90;;;;;;5036341;28;20011;-71
2022/08/22 06:10:35;;;;;;;;;;;14.00;99.90;;;;;;5040892;28;20378;-72
2022/08/22 06:13:19;;;;;;;;;;;14.00;99.90;;;;;;5026289;28;19930;-71
2022/08/22 06:15:54;;;;;;;;;;;14.10;99.90;;;;;;5040167;28;20016;-71
2022/08/22 06:18:27;;;;;;;;;;;14.10;99.90;;;;;;5035109;28;19920;-72
2022/08/22 06:21:00;;;;;;;;;;;14.10;99.90;;;;;;5033253;28;19925;-72
2022/08/22 06:23:37;;;;;;;;;;;14.20;99.90;;;;;;5016974;28;19929;-72
2022/08/22 06:26:10;;;;;;;;;;;14.30;99.90;;;;;;5036663;28;19996;-72
2022/08/22 06:28:39;;;;;;;;;;;14.30;99.90;;;;;;5029035;28;19921;-71
2022/08/22 06:31:16;;;;;;;;;;;14.40;99.90;;;;;;5041709;28;19921;-71
2022/08/22 06:34:03;;;;;;;;;;;14.40;99.90;;;;;;5034767;28;20348;-71
2022/08/22 06:36:32;;;;;;;;;;;14.50;99.90;;;;;;5039689;28;20296;-71
2022/08/22 06:39:02;;;;;;;;;;;14.50;99.90;;;;;;5033062;28;19932;-71
2022/08/22 06:41:36;;;;;;;;;;;14.60;99.90;;;;;;5032610;28;19921;-71
2022/08/22 06:44:14;;;;;;;;;;;14.60;99.90;;;;;;5032497;28;20401;-72
2022/08/22 06:46:43;;;;;;;;;;;14.70;99.90;;;;;;5032468;28;19920;-72
2022/08/22 06:49:15;;;;;;;;;;;14.80;99.90;;;;;;5015228;28;20014;-72
2022/08/22 06:51:48;;;;;;;;;;;14.90;99.90;;;;;;5044152;28;19990;-71
2022/08/22 06:54:23;;;;;;;;;;;15.00;99.90;;;;;;5043838;28;19921;-71
2022/08/22 06:56:55;;;;;;;;;;;15.10;99.90;;;;;;5038939;28;19997;-72
2022/08/22 06:59:24;;;;;;;;;;;15.20;99.90;;;;;;5037238;28;19928;-70
2022/08/22 07:01:54;;;;;;;;;;;15.30;99.90;;;;;;5032029;28;19921;-71
2022/08/22 07:04:25;;;;;;;;;;;15.40;99.90;;;;;;5031831;28;19959;-70
2022/08/22 07:06:58;;;;;;;;;;;15.40;99.90;;;;;;5035994;28;19920;-70
2022/08/22 07:09:34;;;;;;;;;;;15.50;99.90;;;;;;5033044;28;19925;-72
2022/08/22 07:12:10;;;;;;;;;;;15.50;99.90;;;;;;5041724;28;19920;-71
2022/08/22 07:14:44;;;;;;;;;;;15.60;99.90;;;;;;5039907;28;19920;-70
2022/08/22 07:17:17;;;;;;;;;;;15.70;99.90;;;;;;5029839;28;19944;-70
2022/08/22 07:20:09;;;;;;;;;;;15.80;99.90;;;;;;5049883;28;20019;-72
2022/08/22 07:22:50;;;;;;;;;;;15.90;99.90;;;;;;5052109;28;20350;-72
2022/08/22 07:25:17;;;;;;;;;;;16.00;99.90;;;;;;5038572;28;19929;-71
2022/08/22 07:28:07;;;;;;;;;;;16.10;99.90;;;;;;5037391;28;19920;-71
2022/08/22 07:31:00;;;;;;;;;;;16.20;99.90;;;;;;5040095;28;19927;-71
2022/08/22 07:33:43;;;;;;;;;;;16.30;99.90;;;;;;5033864;28;19966;-72
2022/08/22 07:36:30;;;;;;;;;;;16.40;99.90;;;;;;5033292;28;19927;-72
2022/08/22 07:38:56;;;;;;;;;;;16.60;99.90;;;;;;5048162;28;20286;-72
2022/08/22 07:41:25;;;;;;;;;;;16.70;99.90;;;;;;5051015;28;19928;-72
2022/08/22 07:44:09;;;;;;;;;;;16.80;99.90;;;;;;5034537;28;19924;-72
2022/08/22 07:46:53;;;;;;;;;;;17.00;99.90;;;;;;5034696;28;19921;-72
2022/08/22 07:49:23;;;;;;;;;;;17.10;99.90;;;;;;5038459;28;19925;-71
2022/08/22 07:51:57;;;;;;;;;;;17.30;99.90;;;;;;5025831;28;19920;-71
2022/08/22 07:54:45;;;;;;;;;;;17.50;99.90;;;;;;5031689;28;20391;-72
2022/08/22 07:57:20;;;;;;;;;;;17.70;99.90;;;;;;5019215;28;19931;-71
2022/08/22 07:59:54;;;;;;;;;;;17.90;99.90;;;;;;5017395;28;19959;-72
2022/08/22 08:02:22;;;;;;;;;;;18.00;99.90;;;;;;5031175;28;20386;-72
2022/08/22 08:04:55;;;;;;;;;;;18.20;99.90;;;;;;5015963;28;19964;-71
2022/08/22 08:07:27;;;;;;;;;;;18.40;99.90;;;;;;5018231;28;20485;-72
2022/08/22 08:10:02;;;;;;;;;;;18.60;99.90;;;;;;5043640;28;19921;-71
2022/08/22 08:12:39;;;;;;;;;;;18.70;99.90;;;;;;5040646;28;19927;-71
2022/08/22 08:15:14;;;;;;;;;;;18.90;99.90;;;;;;5038103;28;20008;-71
2022/08/22 08:17:48;;;;;;;;;;;19.00;99.90;;;;;;5035793;28;19925;-71
2022/08/22 08:20:21;;;;;;;;;;;19.20;99.90;;;;;;5030535;28;19974;-71
2022/08/22 08:22:54;;;;;;;;;;;19.30;99.90;;;;;;5030818;28;19921;-71
2022/08/22 08:25:28;;;;;;;;;;;19.40;99.90;;;;;;5032876;28;19924;-71
2022/08/22 08:30:54;;;;;;;;;;;19.70;99.90;;;;;;5041917;28;19929;-70
2022/08/22 08:33:28;;;;;;;;;;;19.90;99.90;;;;;;5041875;28;19952;-70
2022/08/22 08:36:23;;;;;;;;;;;20.00;99.90;;;;;;4997877;28;20399;-70
2022/08/22 08:38:57;;;;;;;;;;;20.10;99.90;;;;;;5005528;28;19960;-70
2022/08/22 08:41:47;;;;;;;;;;;20.30;99.90;;;;;;5014623;28;19921;-70
2022/08/22 08:44:37;;;;;;;;;;;20.40;99.90;;;;;;5032395;28;19928;-70
2022/08/22 08:47:23;;;;;;;;;;;20.50;99.90;;;;;;5045401;28;19928;-70
2022/08/22 08:50:19;;;;;;;;;;;20.60;99.90;;;;;;5043954;28;19927;-70
2022/08/22 08:52:51;;;;;;;;;;;20.70;99.90;;;;;;5040832;28;19931;-70
2022/08/22 08:55:32;;;;;;;;;;;20.80;99.90;;;;;;5037983;28;19921;-70
2022/08/22 08:58:03;;;;;;;;;;;20.90;99.90;;;;;;5028021;28;20015;-69
2022/08/22 09:00:44;;;;;;;;;;;21.00;99.90;;;;;;5032948;28;19921;-70
2022/08/22 09:03:31;;;;;;;;;;;21.00;99.90;;;;;;5027331;28;20402;-70
2022/08/22 09:06:06;;;;;;;;;;;21.10;99.90;;;;;;5029342;28;19931;-70
2022/08/22 09:08:53;;;;;;;;;;;21.20;99.90;;;;;;5032409;28;19965;-70
2022/08/22 09:11:33;;;;;;;;;;;21.20;99.90;;;;;;5022970;28;19925;-70
2022/08/22 09:14:11;;;;;;;;;;;21.30;99.90;;;;;;5039761;28;19924;-70
2022/08/22 09:16:43;;;;;;;;;;;21.30;99.90;;;;;;5043066;28;19920;-70
2022/08/22 09:19:26;;;;;;;;;;;21.40;99.90;;;;;;5048385;28;20391;-70
2022/08/22 09:22:06;;;;;;;;;;;21.40;99.90;;;;;;5054138;28;20311;-70
2022/08/22 09:24:41;;;;;;;;;;;21.60;99.90;;;;;;5019930;28;19920;-70
2022/08/22 09:27:22;;;;;;;;;;;21.70;99.90;;;;;;5031744;28;19921;-70
2022/08/22 09:29:57;;;;;;;;;;;21.80;99.90;;;;;;5027484;28;19986;-69
2022/08/22 09:32:43;;;;;;;;;;;21.90;99.90;;;;;;5044311;28;19927;-69
2022/08/22 09:35:35;;;;;;;;;;;21.90;99.90;;;;;;5028124;28;20321;-69
2022/08/22 09:38:22;;;;;;;;;;;22.00;99.90;;;;;;5039376;28;20375;-70
2022/08/22 09:40:58;;;;;;;;;;;22.20;99.90;;;;;;5043363;28;19921;-68
2022/08/22 09:43:53;;;;;;;;;;;22.30;99.90;;;;;;5043697;28;19925;-68
2022/08/22 09:46:26;;;;;;;;;;;22.40;99.90;;;;;;5031790;28;19976;-68
2022/08/22 09:49:00;;;;;;;;;;;22.50;99.90;;;;;;5044680;28;19932;-69
2022/08/22 09:51:38;;;;;;;;;;;22.70;99.90;;;;;;5044549;28;19928;-69
2022/08/22 09:54:16;;;;;;;;;;;22.70;99.90;;;;;;5042768;28;20391;-70
2022/08/22 09:56:56;;;;;;;;;;;22.80;99.90;;;;;;5044007;28;19925;-69
2022/08/22 09:59:33;;;;;;;;;;;22.90;99.90;;;;;;5037169;28;19920;-68
2022/08/22 10:02:05;;;;;;;;;;;22.90;99.90;;;;;;5043298;28;19925;-69
2022/08/22 10:04:57;;;;;;;;;;;23.00;99.90;;;;;;5042112;28;20408;-69
2022/08/22 10:07:48;;;;;;;;;;;23.00;99.90;;;;;;5043798;28;19928;-68
2022/08/22 10:10:24;;;;;;;;;;;23.10;99.90;;;;;;5038972;28;19921;-69
2022/08/22 10:13:08;;;;;;;;;;;23.20;99.90;;;;;;5032930;28;19925;-70
2022/08/22 10:15:42;;;;;;;;;;;23.20;99.90;;;;;;5043890;28;19925;-68
2022/08/22 10:18:34;;;;;;;;;;;23.30;99.90;;;;;;5043259;28;20295;-68
2022/08/22 10:21:05;;;;;;;;;;;23.30;99.90;;;;;;5043857;28;19976;-70
2022/08/22 10:23:37;;;;;;;;;;;23.40;99.90;;;;;;5041804;28;20386;-68
2022/08/22 10:26:17;;;;;;;;;;;23.40;99.90;;;;;;5022976;28;19974;-69
2022/08/22 10:28:57;;;;;;;;;;;23.50;99.90;;;;;;5044232;28;20391;-69
2022/08/22 10:31:35;;;;;;;;;;;23.60;99.90;;;;;;5033400;28;19921;-69
2022/08/22 10:34:10;;;;;;;;;;;23.70;99.90;;;;;;5033423;28;19924;-72
2022/08/22 10:37:00;;;;;;;;;;;23.80;99.90;;;;;;5023737;28;19921;-68
2022/08/22 10:39:51;;;;;;;;;;;23.90;99.90;;;;;;5044839;28;20038;-68
2022/08/22 10:42:26;;;;;;;;;;;23.90;99.90;;;;;;5045187;28;19972;-69
2022/08/22 10:45:14;;;;;;;;;;;23.90;99.90;;;;;;5041823;28;19960;-70
2022/08/22 10:47:52;;;;;;;;;;;23.90;99.90;;;;;;5039567;28;19921;-69
2022/08/22 10:50:35;;;;;;;;;;;24.00;99.90;;;;;;5045032;28;19921;-68
2022/08/22 10:56:03;;;;;;;;;;;23.90;99.90;;;;;;5026820;28;19925;-69
2022/08/22 10:58:49;;;;;;;;;;;24.10;99.90;;;;;;5037934;28;19921;-68
2022/08/22 11:01:24;;;;;;;;;;;24.20;99.90;;;;;;5032109;28;19956;-69
2022/08/22 11:04:14;;;;;;;;;;;24.30;99.90;;;;;;5043637;28;19925;-68
2022/08/22 11:06:51;;;;;;;;;;;24.40;99.90;;;;;;5041675;28;19931;-69
2022/08/22 11:09:27;;;;;;;;;;;24.50;99.90;;;;;;5042544;28;19964;-68
2022/08/22 11:12:11;;;;;;;;;;;24.70;99.90;;;;;;5035351;28;20017;-67
2022/08/22 11:15:05;;;;;;;;;;;24.80;99.90;;;;;;5042914;28;19921;-69
2022/08/22 11:18:02;;;;;;;;;;;24.90;98.80;;;;;;5044540;28;19927;-68
2022/08/22 11:21:12;;;;;;;;;;;25.00;97.90;;;;;;5040684;28;20299;-70
2022/08/22 11:23:53;;;;;;;;;;;25.00;99.90;;;;;;4987662;28;19925;-70
2022/08/22 11:26:39;;;;;;;;;;;25.10;98.30;;;;;;4990938;28;19928;-69
2022/08/22 11:29:10;;;;;;;;;;;25.10;97.70;;;;;;5028210;28;19932;-70
2022/08/22 11:31:58;;;;;;;;;;;25.20;97.50;;;;;;5032957;28;19928;-69
2022/08/22 11:34:36;;;;;;;;;;;25.30;97.10;;;;;;5032343;28;19975;-68
2022/08/22 11:37:27;;;;;;;;;;;25.40;97.60;;;;;;5032448;28;19929;-68
2022/08/22 11:40:19;;;;;;;;;;;25.50;96.30;;;;;;5032730;28;19927;-69
2022/08/22 11:43:09;;;;;;;;;;;25.40;95.60;;;;;;5040762;28;20271;-69
2022/08/22 11:45:50;;;;;;;;;;;25.50;96.10;;;;;;5043785;28;19947;-69
2022/08/22 11:48:39;;;;;;;;;;;25.70;96.30;;;;;;5040201;28;19946;-68
2022/08/22 11:51:14;;;;;;;;;;;25.80;96.40;;;;;;5041332;28;19925;-68
2022/08/22 11:53:50;;;;;;;;;;;26.00;95.40;;;;;;5039944;28;19943;-68
2022/08/22 11:56:25;;;;;;;;;;;26.00;96.00;;;;;;5042007;28;19921;-68
2022/08/22 11:59:03;;;;;;;;;;;25.90;94.90;;;;;;5040410;28;20298;-68
2022/08/22 12:01:46;;;;;;;;;;;25.90;94.80;;;;;;5045853;28;20371;-69
2022/08/22 12:04:38;;;;;;;;;;;25.90;92.10;;;;;;5036243;28;19928;-70
2022/08/22 12:07:12;;;;;;;;;;;25.90;92.50;;;;;;5043710;28;20445;-68
2022/08/22 12:09:53;;;;;;;;;;;25.90;94.20;;;;;;5042992;28;19928;-68
2022/08/22 12:12:31;;;;;;;;;;;25.90;95.30;;;;;;5038614;28;19935;-69
2022/08/22 12:15:07;;;;;;;;;;;26.00;95.30;;;;;;5040828;28;20376;-68
2022/08/22 12:18:08;;;;;;;;;;;26.10;92.40;;;;;;5041443;28;20038;-69
2022/08/22 12:20:39;;;;;;;;;;;25.90;90.40;;;;;;5049398;28;20007;-68
2022/08/22 12:23:11;;;;;;;;;;;25.90;90.70;;;;;;5039773;28;19931;-69
2022/08/22 12:25:59;;;;;;;;;;;26.00;91.60;;;;;;5042983;28;20315;-68
2022/08/22 12:28:34;;;;;;;;;;;26.00;90.10;;;;;;5038536;28;19931;-68
2022/08/22 12:31:12;;;;;;;;;;;26.00;91.50;;;;;;5041477;28;19964;-69
2022/08/22 12:33:51;;;;;;;;;;;25.80;91.80;;;;;;5041572;28;19921;-69
2022/08/22 12:36:47;;;;;;;;;;;25.70;91.40;;;;;;5031300;28;19921;-69
2022/08/22 12:39:34;;;;;;;;;;;25.50;90.40;;;;;;5031346;28;19927;-69
2022/08/22 12:42:18;;;;;;;;;;;25.40;91.90;;;;;;5031722;28;19924;-69
2022/08/22 12:45:09;;;;;;;;;;;25.50;91.50;;;;;;5033468;28;19963;-68
2022/08/22 12:47:59;;;;;;;;;;;25.70;87.30;;;;;;5044403;28;19925;-68
2022/08/22 12:50:38;;;;;;;;;;;25.90;90.00;;;;;;5038475;28;20437;-70
2022/08/22 12:53:09;;;;;;;;;;;25.90;88.60;;;;;;5041120;28;19921;-69
2022/08/22 12:55:58;;;;;;;;;;;25.90;88.50;;;;;;5042782;28;19931;-69
2022/08/22 12:58:29;;;;;;;;;;;26.00;90.00;;;;;;5047481;28;20302;-69
2022/08/22 13:01:03;;;;;;;;;;;26.20;91.70;;;;;;5043112;28;19925;-68
2022/08/22 13:03:46;;;;;;;;;;;26.20;90.90;;;;;;5050112;28;19965;-69
2022/08/22 13:06:44;;;;;;;;;;;26.10;92.80;;;;;;5042220;28;19990;-68
2022/08/22 13:09:21;;;;;;;;;;;26.00;91.10;;;;;;5040503;28;19920;-69
2022/08/22 13:11:54;;;;;;;;;;;25.80;91.40;;;;;;5046387;28;19921;-69
2022/08/22 13:14:27;;;;;;;;;;;25.70;90.60;;;;;;5044234;28;19929;-69
2022/08/22 13:17:02;;;;;;;;;;;25.80;90.60;;;;;;5043167;28;19935;-69
2022/08/22 13:19:45;;;;;;;;;;;26.00;88.50;;;;;;5023196;28;19921;-69
2022/08/22 13:22:19;;;;;;;;;;;26.20;88.20;;;;;;5047122;28;20383;-69
2022/08/22 13:24:55;;;;;;;;;;;26.40;86.00;;;;;;5044158;28;19964;-68
2022/08/22 13:27:47;;;;;;;;;;;26.50;83.40;;;;;;5047869;28;20006;-68
2022/08/22 13:30:20;;;;;;;;;;;26.60;86.90;;;;;;5044985;28;19921;-69
2022/08/22 13:32:55;;;;;;;;;;;26.80;88.50;;;;;;5045834;28;19927;-68
2022/08/22 13:35:32;;;;;;;;;;;26.90;84.40;;;;;;5042393;28;19928;-69
2022/08/22 13:38:10;;;;;;;;;;;27.00;78.80;;;;;;5043425;28;19927;-68
2022/08/22 13:40:44;;;;;;;;;;;27.10;82.10;;;;;;5045030;28;20317;-68
2022/08/22 13:43:25;;;;;;;;;;;27.20;84.20;;;;;;5043474;28;19924;-69
2022/08/22 13:45:58;;;;;;;;;;;27.30;82.50;;;;;;5044923;28;19964;-69
2022/08/22 13:48:47;;;;;;;;;;;27.30;84.60;;;;;;5034685;28;19925;-69
2022/08/22 13:51:33;;;;;;;;;;;27.40;82.00;;;;;;5034809;28;19921;-69
2022/08/22 13:54:14;;;;;;;;;;;27.50;83.00;;;;;;5034267;28;19928;-68
2022/08/22 13:57:00;;;;;;;;;;;27.60;82.20;;;;;;5038973;28;20375;-68
2022/08/22 13:59:43;;;;;;;;;;;27.70;82.50;;;;;;5045567;28;19935;-68
2022/08/22 14:02:31;;;;;;;;;;;27.70;79.30;;;;;;5042184;28;19932;-70
2022/08/22 14:05:06;;;;;;;;;;;27.40;77.10;;;;;;5045290;28;20310;-70
2022/08/22 14:07:56;;;;;;;;;;;27.30;77.50;;;;;;5024682;28;19920;-69
2022/08/22 14:10:31;;;;;;;;;;;27.40;77.90;;;;;;5043604;28;20394;-68
2022/08/22 14:13:21;;;;;;;;;;;27.60;75.30;;;;;;5043491;28;19928;-69
2022/08/22 14:16:13;;;;;;;;;;;27.80;77.70;;;;;;5042035;28;20017;-69
2022/08/22 14:18:53;;;;;;;;;;;27.90;74.10;;;;;;5023065;28;20027;-68
2022/08/22 14:21:26;;;;;;;;;;;28.10;74.90;;;;;;5034212;28;19979;-69
2022/08/22 14:24:02;;;;;;;;;;;28.10;73.80;;;;;;5033811;28;19925;-69
2022/08/22 14:26:39;;;;;;;;;;;28.30;77.30;;;;;;5045760;28;20023;-69
2022/08/22 14:29:12;;;;;;;;;;;28.60;77.20;;;;;;5044819;28;20014;-70
2022/08/22 14:31:57;;;;;;;;;;;28.80;74.60;;;;;;5042663;28;19921;-69
2022/08/22 14:34:30;;;;;;;;;;;29.00;75.40;;;;;;5041989;28;19921;-70
2022/08/22 14:37:06;;;;;;;;;;;29.10;73.50;;;;;;5033733;28;19948;-69
2022/08/22 14:39:44;;;;;;;;;;;29.20;72.60;;;;;;5045587;28;19924;-69
2022/08/22 14:42:24;;;;;;;;;;;29.40;70.90;;;;;;5042084;28;19962;-69
2022/08/22 14:45:02;;;;;;;;;;;29.10;69.60;;;;;;5041731;28;20276;-69
2022/08/22 14:47:44;;;;;;;;;;;29.00;72.20;;;;;;5031993;28;19920;-68
2022/08/22 14:50:34;;;;;;;;;;;29.10;74.90;;;;;;5044073;28;19921;-69
2022/08/22 14:53:08;;;;;;;;;;;29.20;68.80;;;;;;5043404;28;20260;-69
2022/08/22 14:55:40;;;;;;;;;;;29.50;69.20;;;;;;5041604;28;19979;-69
2022/08/22 14:58:14;;;;;;;;;;;29.80;70.10;;;;;;5047544;28;19924;-69
2022/08/22 15:00:48;;;;;;;;;;;30.00;65.70;;;;;;5041062;28;20379;-69
2022/08/22 15:03:20;;;;;;;;;;;30.30;66.00;;;;;;5040991;28;19927;-69
2022/08/22 15:05:58;;;;;;;;;;;30.60;66.00;;;;;;5039169;28;20379;-69
2022/08/22 15:08:34;;;;;;;;;;;30.90;68.40;;;;;;5042187;28;20338;-69
2022/08/22 15:11:09;;;;;;;;;;;31.30;62.60;;;;;;5042347;28;19921;-69
2022/08/22 15:13:48;;;;;;;;;;;31.60;63.40;;;;;;5039531;28;19921;-69
2022/08/22 15:16:22;;;;;;;;;;;31.60;60.40;;;;;;5045962;28;19920;-69
2022/08/22 15:18:53;;;;;;;;;;;31.50;63.70;;;;;;5043317;28;20015;-69
2022/08/22 15:21:27;;;;;;;;;;;31.50;60.50;;;;;;5041494;28;20036;-69
2022/08/22 15:24:02;;;;;;;;;;;31.50;60.80;;;;;;5042663;28;19924;-69
2022/08/22 15:26:38;;;;;;;;;;;31.70;60.30;;;;;;5045454;28;19999;-69
2022/08/22 15:29:19;;;;;;;;;;;32.00;60.10;;;;;;5041542;28;20394;-69
2022/08/22 15:31:53;;;;;;;;;;;32.10;57.80;;;;;;5042496;28;19921;-69
2022/08/22 15:34:38;;;;;;;;;;;32.40;57.80;;;;;;5043668;28;19927;-70
2022/08/22 15:37:18;;;;;;;;;;;32.40;58.60;;;;;;5036687;28;19936;-70